| time (UTC) | temp F | wind direction | speed MPH | gust MPH | rain 1hr in | rain 24hr in | rain mn in | humidity % | barometer mb |
| 20260507005508 | 39 | 168 | 1.0 | 6.0 | 0.00 | 0.90 | 0.89 | 72 | 1017.8 |
| 20260507005010 | 39 | 194 | 1.0 | 5.0 | 0.00 | 0.90 | 0.89 | 72 | 1017.9 |
| 20260507004515 | 39 | 215 | 2.0 | 7.0 | 0.00 | 0.90 | 0.89 | 72 | 1017.9 |
| 20260507004007 | 39 | 209 | 3.0 | 6.0 | 0.00 | 0.90 | 0.89 | 71 | 1017.9 |
| 20260507003512 | 39 | 166 | 1.0 | 5.0 | 0.00 | 0.90 | 0.89 | 71 | 1018.0 |
| 20260507003025 | 40 | 216 | 3.0 | 5.0 | 0.00 | 0.90 | 0.89 | 71 | 1018.0 |
| 20260507002510 | 40 | 103 | 2.0 | 6.0 | 0.00 | 0.90 | 0.89 | 70 | 1018.1 |
| 20260507002004 | 40 | 167 | 2.0 | 6.0 | 0.00 | 0.90 | 0.89 | 69 | 1018.1 |
| 20260507001514 | 41 | 188 | 1.0 | 6.0 | 0.00 | 0.90 | 0.89 | 70 | 1018.2 |
| 20260507001007 | 41 | 168 | 2.0 | 8.0 | 0.00 | 0.90 | 0.89 | 68 | 1018.1 |
| 20260507000507 | 41 | 217 | 2.0 | 8.0 | 0.00 | 0.90 | 0.89 | 68 | 1018.3 |
| 20260507000023 | 41 | 184 | 1.0 | 5.0 | 0.00 | 0.90 | 0.89 | 69 | 1018.4 |
| 20260506235508 | 41 | 134 | 1.0 | 7.0 | 0.00 | 0.90 | 0.89 | 69 | 1018.4 |
| 20260506235010 | 41 | 161 | 1.0 | 7.0 | 0.00 | 0.90 | 0.89 | 68 | 1018.5 |
| 20260506234528 | 41 | 238 | 3.0 | 8.0 | 0.00 | 0.90 | 0.89 | 70 | 1018.5 |
| 20260506234003 | 41 | 139 | 3.0 | 9.0 | 0.00 | 0.90 | 0.89 | 69 | 1018.5 |
| 20260506233504 | 41 | 150 | 3.0 | 9.0 | 0.00 | 0.90 | 0.89 | 69 | 1018.5 |
| 20260506233016 | 41 | 250 | 2.0 | 7.0 | 0.00 | 0.90 | 0.89 | 73 | 1018.5 |
| 20260506232505 | 40 | 159 | 3.0 | 7.0 | 0.01 | 0.90 | 0.89 | 68 | 1018.6 |
| 20260506232010 | 40 | 202 | 1.0 | 6.0 | 0.01 | 0.90 | 0.89 | 70 | 1018.6 |
| 20260506231523 | 40 | 101 | 2.0 | 6.0 | 0.01 | 0.90 | 0.89 | 71 | 1018.5 |
| 20260506231010 | 40 | 157 | 1.0 | 6.0 | 0.02 | 0.90 | 0.89 | 72 | 1018.3 |
| 20260506230510 | 39 | 139 | 2.0 | 6.0 | 0.03 | 0.90 | 0.89 | 71 | 1018.2 |
| 20260506230010 | 39 | 115 | 2.0 | 6.0 | 0.03 | 0.90 | 0.89 | 71 | 1018.3 |
| 20260506225508 | 40 | 157 | 1.0 | 4.0 | 0.04 | 0.90 | 0.89 | 73 | 1018.4 |
| 20260506225011 | 40 | 195 | 1.0 | 4.0 | 0.05 | 0.90 | 0.89 | 72 | 1018.6 |
| 20260506224517 | 40 | 105 | 2.0 | 5.0 | 0.06 | 0.90 | 0.89 | 70 | 1018.6 |
| 20260506224009 | 40 | 148 | 1.0 | 7.0 | 0.07 | 0.90 | 0.89 | 71 | 1018.6 |
| 20260506223510 | 40 | 163 | 1.0 | 5.0 | 0.08 | 0.90 | 0.89 | 74 | 1018.8 |
| 20260506223025 | 40 | 108 | 1.0 | 6.0 | 0.09 | 0.90 | 0.89 | 73 | 1018.8 |
| 20260506222511 | 39 | 103 | 2.0 | 6.0 | 0.10 | 0.89 | 0.88 | 71 | 1018.9 |
| 20260506222007 | 39 | 111 | 2.0 | 5.0 | 0.12 | 0.89 | 0.88 | 70 | 1019.0 |
| 20260506221514 | 40 | 156 | 1.0 | 5.0 | 0.14 | 0.90 | 0.88 | 69 | 1018.9 |
| 20260506221007 | 40 | 161 | 1.0 | 5.0 | 0.14 | 0.89 | 0.87 | 69 | 1018.9 |
| 20260506220507 | 40 | 150 | 2.0 | 5.0 | 0.15 | 0.88 | 0.86 | 71 | 1019.0 |
| 20260506220024 | 40 | 128 | 1.0 | 4.0 | 0.17 | 0.88 | 0.86 | 70 | 1019.1 |
| 20260506215510 | 40 | 146 | 2.0 | 6.0 | 0.17 | 0.87 | 0.85 | 71 | 1019.2 |
| 20260506215011 | 40 | 187 | 2.0 | 6.0 | 0.19 | 0.87 | 0.84 | 71 | 1019.3 |
| 20260506214529 | 40 | 162 | 1.0 | 5.0 | 0.19 | 0.86 | 0.83 | 70 | 1019.3 |
| 20260506214004 | 39 | 135 | 1.0 | 8.0 | 0.19 | 0.85 | 0.82 | 73 | 1019.4 |
| 20260506213506 | 39 | 122 | 1.0 | 8.0 | 0.19 | 0.84 | 0.81 | 72 | 1019.5 |
| 20260506213018 | 39 | 217 | 3.0 | 8.0 | 0.20 | 0.83 | 0.80 | 71 | 1019.6 |
| 20260506212507 | 39 | 162 | 2.0 | 8.0 | 0.19 | 0.81 | 0.78 | 72 | 1019.7 |
| 20260506212015 | 40 | 151 | 2.0 | 5.0 | 0.19 | 0.79 | 0.76 | 76 | 1019.7 |
| 20260506211526 | 39 | 73 | 1.0 | 6.0 | 0.19 | 0.77 | 0.74 | 71 | 1019.6 |
| 20260506211010 | 39 | 95 | 1.0 | 6.0 | 0.21 | 0.76 | 0.73 | 72 | 1019.8 |
| 20260506210503 | 39 | 153 | 1.0 | 5.0 | 0.21 | 0.75 | 0.71 | 77 | 1019.8 |
| 20260506210016 | 39 | 136 | 1.0 | 6.0 | 0.22 | 0.73 | 0.69 | 75 | 1019.8 |
| 20260506205507 | 39 | 184 | 1.0 | 4.0 | 0.24 | 0.72 | 0.68 | 74 | 1019.9 |
| 20260506205010 | 38 | 98 | 2.0 | 6.0 | 0.24 | 0.69 | 0.65 | 77 | 1020.0 |
| 20260506204503 | 38 | 120 | 2.0 | 6.0 | 0.26 | 0.68 | 0.64 | 77 | 1020.0 |
| 20260506204002 | 37 | 195 | 1.0 | 4.0 | 0.28 | 0.67 | 0.63 | 81 | 1020.0 |
| 20260506203502 | 37 | 107 | 0.0 | 4.0 | 0.31 | 0.66 | 0.62 | 80 | 1020.1 |
| 20260506203006 | 38 | 195 | 1.0 | 4.0 | 0.33 | 0.65 | 0.60 | 79 | 1020.1 |
| 20260506202503 | 38 | 115 | 1.0 | 4.0 | 0.35 | 0.64 | 0.58 | 76 | 1020.3 |
| 20260506202007 | 38 | 147 | 1.0 | 6.0 | 0.35 | 0.63 | 0.57 | 77 | 1020.3 |
| 20260506201519 | 38 | 121 | 2.0 | 6.0 | 0.34 | 0.61 | 0.55 | 77 | 1020.3 |
| 20260506201007 | 38 | 161 | 1.0 | 6.0 | 0.32 | 0.58 | 0.52 | 81 | 1020.3 |
| 20260506200503 | 38 | 228 | 1.0 | 6.0 | 0.31 | 0.58 | 0.50 | 77 | 1020.3 |
| 20260506200003 | 38 | 163 | 1.0 | 3.0 | 0.29 | 0.55 | 0.47 | 79 | 1020.3 |
| 20260506195503 | 38 | 186 | 1.0 | 3.0 | 0.27 | 0.52 | 0.44 | 77 | 1020.3 |
| 20260506195004 | 38 | 167 | 1.0 | 5.0 | 0.25 | 0.49 | 0.41 | 79 | 1020.4 |
| 20260506194510 | 38 | 322 | 1.0 | 5.0 | 0.23 | 0.46 | 0.38 | 80 | 1020.4 |
| 20260506194008 | 37 | 109 | 1.0 | 4.0 | 0.21 | 0.43 | 0.35 | 74 | 1020.5 |
| 20260506193505 | 38 | 58 | 2.0 | 7.0 | 0.17 | 0.39 | 0.31 | 77 | 1020.5 |
| 20260506193020 | 38 | 68 | 3.0 | 7.0 | 0.14 | 0.35 | 0.27 | 74 | 1020.5 |
| 20260506192502 | 37 | 175 | 1.0 | 5.0 | 0.12 | 0.32 | 0.24 | 77 | 1020.6 |
| 20260506192006 | 37 | 121 | 2.0 | 5.0 | 0.11 | 0.30 | 0.22 | 80 | 1020.6 |
| 20260506191506 | 36 | 62 | 2.0 | 5.0 | 0.10 | 0.29 | 0.21 | 77 | 1020.7 |
| 20260506191004 | 36 | 32 | 3.0 | 6.0 | 0.10 | 0.28 | 0.20 | 74 | 1020.8 |
| 20260506190504 | 36 | 42 | 2.0 | 6.0 | 0.09 | 0.27 | 0.19 | 75 | 1020.8 |
| 20260506190011 | 37 | 73 | 3.0 | 6.0 | 0.09 | 0.27 | 0.18 | 74 | 1020.8 |
| 20260506185509 | 37 | 146 | 0.0 | 3.0 | 0.08 | 0.26 | 0.17 | 79 | 1020.8 |
| 20260506185007 | 38 | 56 | 1.0 | 3.0 | 0.08 | 0.25 | 0.16 | 73 | 1020.9 |
| 20260506184504 | 38 | 114 | 0.0 | 2.0 | 0.08 | 0.24 | 0.15 | 79 | 1020.9 |
| 20260506184003 | 37 | 158 | 1.0 | 3.0 | 0.07 | 0.24 | 0.14 | 81 | 1021.0 |
| 20260506183505 | 36 | 59 | 1.0 | 4.0 | 0.08 | 0.24 | 0.14 | 79 | 1021.0 |
| 20260506183008 | 36 | 148 | 1.0 | 4.0 | 0.07 | 0.23 | 0.13 | 82 | 1021.0 |
| 20260506182504 | 35 | 138 | 1.0 | 6.0 | 0.06 | 0.23 | 0.12 | 83 | 1021.2 |
| 20260506182008 | 35 | 347 | 1.0 | 6.0 | 0.06 | 0.22 | 0.11 | 86 | 1021.2 |
| 20260506181520 | 34 | 57 | 2.0 | 4.0 | 0.06 | 0.22 | 0.11 | 86 | 1021.2 |
| 20260506181009 | 34 | 46 | 2.0 | 8.0 | 0.05 | 0.22 | 0.10 | 85 | 1021.3 |
| 20260506180502 | 34 | 301 | 1.0 | 8.0 | 0.05 | 0.22 | 0.10 | 87 | 1021.3 |
| 20260506180005 | 34 | 347 | 2.0 | 6.0 | 0.05 | 0.22 | 0.09 | 88 | 1021.4 |
| 20260506175503 | 34 | 348 | 2.0 | 6.0 | 0.05 | 0.23 | 0.09 | 88 | 1021.3 |
| 20260506175003 | 34 | 340 | 2.0 | 4.0 | 0.04 | 0.23 | 0.08 | 88 | 1021.2 |
| 20260506174514 | 34 | 321 | 1.0 | 4.0 | 0.03 | 0.22 | 0.07 | 89 | 1021.2 |
| 20260506174008 | 34 | 346 | 1.0 | 4.0 | 0.03 | 0.22 | 0.07 | 92 | 1021.1 |
| 20260506173509 | 33 | 290 | 0.0 | 5.0 | 0.03 | 0.21 | 0.06 | 91 | 1021.2 |
| 20260506173031 | 33 | 333 | 1.0 | 6.0 | 0.03 | 0.22 | 0.06 | 91 | 1021.2 |
| 20260506172503 | 33 | 352 | 3.0 | 8.0 | 0.03 | 0.22 | 0.06 | 91 | 1021.2 |
| 20260506172006 | 33 | 19 | 1.0 | 8.0 | 0.02 | 0.21 | 0.05 | 92 | 1021.2 |
| 20260506171505 | 32 | 19 | 2.0 | 6.0 | 0.02 | 0.21 | 0.05 | 92 | 1021.2 |
| 20260506171004 | 32 | 342 | 2.0 | 6.0 | 0.03 | 0.21 | 0.05 | 92 | 1021.1 |
| 20260506170505 | 32 | 352 | 2.0 | 7.0 | 0.03 | 0.21 | 0.05 | 92 | 1021.1 |
| 20260506170016 | 32 | 347 | 4.0 | 9.0 | 0.02 | 0.20 | 0.04 | 92 | 1021.0 |
| 20260506165508 | 31 | 30 | 3.0 | 9.0 | 0.02 | 0.20 | 0.04 | 91 | 1021.0 |
| 20260506165007 | 31 | 347 | 3.0 | 9.0 | 0.02 | 0.20 | 0.04 | 92 | 1021.0 |
| 20260506164525 | 31 | 346 | 2.0 | 6.0 | 0.02 | 0.20 | 0.04 | 92 | 1021.0 |
| 20260506164005 | 31 | 17 | 3.0 | 9.0 | 0.02 | 0.21 | 0.04 | 92 | 1020.9 |
| 20260506163504 | 31 | 348 | 4.0 | 9.0 | 0.01 | 0.20 | 0.03 | 92 | 1020.7 |
| 20260506163008 | 32 | 352 | 3.0 | 6.0 | 0.01 | 0.20 | 0.03 | 92 | 1020.7 |
| 20260506162504 | 32 | 9 | 2.0 | 6.0 | 0.01 | 0.20 | 0.03 | 92 | 1020.6 |
| 20260506162009 | 32 | 350 | 2.0 | 6.0 | 0.01 | 0.20 | 0.03 | 93 | 1020.5 |
| 20260506161520 | 32 | 38 | 2.0 | 3.0 | 0.01 | 0.20 | 0.03 | 93 | 1020.4 |
| 20260506161010 | 32 | 5 | 1.0 | 3.0 | 0.00 | 0.20 | 0.02 | 92 | 1020.3 |
| 20260506160513 | 32 | 328 | 0.0 | 1.0 | 0.00 | 0.20 | 0.02 | 93 | 1020.3 |
| 20260506160006 | 31 | 327 | 0.0 | 2.0 | 0.00 | 0.20 | 0.02 | 93 | 1020.2 |
| 20260506155504 | 31 | 328 | 0.0 | 2.0 | 0.00 | 0.20 | 0.02 | 92 | 1020.2 |
| 20260506155006 | 32 | 329 | 0.0 | 2.0 | 0.00 | 0.20 | 0.02 | 93 | 1020.2 |
| 20260506154513 | 31 | 336 | 0.0 | 0.0 | 0.00 | 0.21 | 0.02 | 93 | 1020.3 |
| 20260506154008 | 31 | 328 | 0.0 | 0.0 | 0.01 | 0.21 | 0.02 | 93 | 1020.3 |
| 20260506153507 | 31 | 327 | 0.0 | 0.0 | 0.01 | 0.21 | 0.02 | 93 | 1020.3 |
| 20260506153022 | 31 | 325 | 0.0 | 0.0 | 0.01 | 0.22 | 0.02 | 93 | 1020.0 |
| 20260506152508 | 31 | 321 | 0.0 | 0.0 | 0.01 | 0.22 | 0.02 | 93 | 1020.0 |
| 20260506152004 | 31 | 317 | 0.0 | 0.0 | 0.01 | 0.22 | 0.02 | 93 | 1019.9 |
| 20260506151507 | 31 | 323 | 0.0 | 0.0 | 0.01 | 0.23 | 0.02 | 93 | 1020.0 |
| 20260506151004 | 31 | 328 | 0.0 | 0.0 | 0.01 | 0.23 | 0.02 | 93 | 1020.1 |
| 20260506150505 | 31 | 316 | 0.0 | 0.0 | 0.01 | 0.23 | 0.02 | 93 | 1020.0 |
| 20260506150018 | 31 | 340 | 0.0 | 0.0 | 0.01 | 0.24 | 0.02 | 94 | 1019.9 |
| 20260506145506 | 31 | 42 | 0.0 | 0.0 | 0.01 | 0.24 | 0.02 | 94 | 1019.9 |
| 20260506145011 | 31 | 315 | 0.0 | 0.0 | 0.01 | 0.24 | 0.02 | 93 | 1019.8 |
| 20260506144529 | 31 | 5 | 0.0 | 0.0 | 0.01 | 0.25 | 0.02 | 94 | 1019.8 |
| 20260506144004 | 31 | 5 | 0.0 | 0.0 | 0.00 | 0.24 | 0.01 | 94 | 1019.6 |
| 20260506143504 | 31 | 9 | 0.0 | 0.0 | 0.00 | 0.25 | 0.01 | 94 | 1019.6 |
| 20260506143022 | 31 | 11 | 0.0 | 0.0 | 0.00 | 0.25 | 0.01 | 94 | 1019.6 |
| 20260506142506 | 31 | 12 | 0.0 | 0.0 | 0.00 | 0.26 | 0.01 | 94 | 1019.5 |
| 20260506142008 | 31 | 13 | 0.0 | 0.0 | 0.00 | 0.26 | 0.01 | 95 | 1019.6 |
| 20260506141523 | 31 | 13 | 0.0 | 0.0 | 0.00 | 0.27 | 0.01 | 95 | 1019.4 |
| 20260506141011 | 31 | 14 | 0.0 | 0.0 | 0.00 | 0.27 | 0.01 | 94 | 1019.4 |
| 20260506140511 | 31 | 14 | 0.0 | 0.0 | 0.00 | 0.28 | 0.01 | 94 | 1019.4 |
| 20260506140005 | 31 | 14 | 0.0 | 0.0 | 0.00 | 0.28 | 0.01 | 95 | 1019.4 |
| 20260506135506 | 31 | 15 | 0.0 | 0.0 | 0.00 | 0.29 | 0.01 | 95 | 1019.3 |
| 20260506135008 | 31 | 15 | 0.0 | 0.0 | 0.00 | 0.29 | 0.01 | 95 | 1019.3 |
| 20260506134516 | 31 | 15 | 0.0 | 0.0 | 0.00 | 0.30 | 0.01 | 95 | 1019.4 |
| 20260506134008 | 31 | 15 | 0.0 | 0.0 | 0.00 | 0.30 | 0.01 | 95 | 1019.4 |
| 20260506133516 | 31 | 15 | 0.0 | 0.0 | 0.00 | 0.30 | 0.01 | 95 | 1019.3 |
| 20260506133026 | 31 | 15 | 0.0 | 0.0 | 0.00 | 0.30 | 0.01 | 95 | 1019.1 |
| 20260506132517 | 31 | 15 | 0.0 | 0.0 | 0.00 | 0.30 | 0.01 | 95 | 1019.1 |
| 20260506132005 | 31 | 15 | 0.0 | 0.0 | 0.00 | 0.31 | 0.01 | 95 | 1018.9 |
| 20260506131508 | 31 | 15 | 0.0 | 0.0 | 0.00 | 0.31 | 0.01 | 95 | 1018.8 |
| 20260506131004 | 31 | 15 | 0.0 | 0.0 | 0.00 | 0.31 | 0.01 | 95 | 1018.7 |
| 20260506130507 | 31 | 15 | 0.0 | 0.0 | 0.00 | 0.31 | 0.01 | 95 | 1018.7 |
| 20260506130020 | 31 | 16 | 0.0 | 0.0 | 0.00 | 0.31 | 0.01 | 95 | 1018.6 |
| 20260506125508 | 31 | 16 | 0.0 | 0.0 | 0.00 | 0.31 | 0.01 | 95 | 1018.4 |
| 20260506125010 | 31 | 16 | 0.0 | 0.0 | 0.00 | 0.31 | 0.01 | 95 | 1018.2 |
| 20260506124527 | 31 | 32 | 0.0 | 0.0 | 0.00 | 0.31 | 0.01 | 95 | 1018.2 |
| 20260506124007 | 31 | 32 | 0.0 | 0.0 | 0.00 | 0.31 | 0.01 | 95 | 1018.1 |
| 20260506123503 | 31 | 32 | 0.0 | 0.0 | 0.00 | 0.31 | 0.01 | 95 | 1018.2 |
| 20260506123015 | 31 | 32 | 0.0 | 0.0 | 0.00 | 0.32 | 0.01 | 95 | 1018.0 |
| 20260506122508 | 31 | 32 | 0.0 | 0.0 | 0.00 | 0.32 | 0.01 | 95 | 1018.0 |
| 20260506122007 | 31 | 32 | 0.0 | 0.0 | 0.00 | 0.32 | 0.01 | 95 | 1017.9 |
| 20260506121522 | 31 | 30 | 0.0 | 0.0 | 0.00 | 0.32 | 0.01 | 95 | 1018.0 |
| 20260506121011 | 31 | 30 | 0.0 | 0.0 | 0.00 | 0.32 | 0.01 | 95 | 1018.1 |
| 20260506120506 | 31 | 30 | 0.0 | 0.0 | 0.00 | 0.32 | 0.01 | 95 | 1018.1 |
| 20260506120014 | 31 | 30 | 0.0 | 0.0 | 0.00 | 0.32 | 0.01 | 95 | 1017.8 |
| 20260506115507 | 31 | 30 | 0.0 | 0.0 | 0.00 | 0.32 | 0.01 | 95 | 1017.7 |
| 20260506115007 | 31 | 19 | 0.0 | 0.0 | 0.00 | 0.33 | 0.01 | 95 | 1017.6 |
| 20260506114519 | 31 | 17 | 0.0 | 0.0 | 0.00 | 0.33 | 0.01 | 95 | 1017.7 |
| 20260506114007 | 31 | 13 | 0.0 | 0.0 | 0.00 | 0.33 | 0.01 | 95 | 1017.7 |
| 20260506113507 | 31 | 13 | 0.0 | 0.0 | 0.00 | 0.34 | 0.01 | 95 | 1017.7 |
| 20260506113005 | 31 | 13 | 0.0 | 0.0 | 0.00 | 0.34 | 0.01 | 95 | 1017.6 |
| 20260506112503 | 31 | 13 | 0.0 | 0.0 | 0.00 | 0.34 | 0.01 | 95 | 1017.6 |
| 20260506112003 | 31 | 13 | 0.0 | 0.0 | 0.00 | 0.35 | 0.01 | 95 | 1017.5 |
| 20260506111511 | 32 | 13 | 0.0 | 0.0 | 0.00 | 0.35 | 0.01 | 95 | 1017.5 |
| 20260506111006 | 32 | 13 | 0.0 | 0.0 | 0.00 | 0.35 | 0.01 | 95 | 1017.4 |
| 20260506110506 | 32 | 13 | 0.0 | 0.0 | 0.00 | 0.35 | 0.01 | 95 | 1017.3 |
| 20260506110024 | 32 | 13 | 0.0 | 0.0 | 0.00 | 0.35 | 0.01 | 95 | 1017.2 |
| 20260506105510 | 31 | 13 | 0.0 | 0.0 | 0.00 | 0.35 | 0.01 | 95 | 1017.3 |
| 20260506105005 | 31 | 329 | 0.0 | 0.0 | 0.00 | 0.36 | 0.01 | 95 | 1017.3 |
| 20260506104506 | 31 | 329 | 0.0 | 0.0 | 0.00 | 0.36 | 0.01 | 95 | 1017.3 |
| 20260506104003 | 31 | 329 | 0.0 | 0.0 | 0.00 | 0.36 | 0.01 | 95 | 1017.1 |
| 20260506103509 | 31 | 329 | 0.0 | 0.0 | 0.00 | 0.37 | 0.01 | 95 | 1017.1 |
| 20260506103014 | 31 | 329 | 0.0 | 0.0 | 0.00 | 0.37 | 0.01 | 95 | 1017.2 |
| 20260506102507 | 31 | 329 | 0.0 | 0.0 | 0.00 | 0.38 | 0.01 | 95 | 1017.2 |
| 20260506102010 | 31 | 329 | 0.0 | 0.0 | 0.00 | 0.38 | 0.01 | 95 | 1017.2 |
| 20260506101539 | 31 | 329 | 0.0 | 0.0 | 0.00 | 0.38 | 0.01 | 95 | 1017.2 |
| 20260506101009 | 31 | 329 | 0.0 | 0.0 | 0.00 | 0.38 | 0.01 | 95 | 1017.3 |
| 20260506100503 | 31 | 329 | 0.0 | 0.0 | 0.00 | 0.38 | 0.01 | 95 | 1017.4 |
| 20260506100011 | 31 | 329 | 0.0 | 0.0 | 0.00 | 0.38 | 0.01 | 95 | 1017.4 |
| 20260506095506 | 31 | 329 | 0.0 | 0.0 | 0.00 | 0.39 | 0.01 | 95 | 1017.4 |
| 20260506095007 | 31 | 337 | 0.0 | 0.0 | 0.00 | 0.39 | 0.01 | 95 | 1017.5 |
| 20260506094524 | 31 | 337 | 0.0 | 0.0 | 0.00 | 0.40 | 0.01 | 95 | 1017.5 |
| 20260506094008 | 31 | 337 | 0.0 | 0.0 | 0.00 | 0.41 | 0.01 | 95 | 1017.5 |
| 20260506093509 | 31 | 337 | 0.0 | 0.0 | 0.00 | 0.42 | 0.01 | 95 | 1017.6 |
| 20260506093038 | 31 | 337 | 0.0 | 0.0 | 0.00 | 0.43 | 0.01 | 95 | 1017.3 |
| 20260506092504 | 31 | 337 | 0.0 | 0.0 | 0.00 | 0.45 | 0.01 | 95 | 1017.3 |
| 20260506092011 | 31 | 337 | 0.0 | 0.0 | 0.01 | 0.47 | 0.01 | 95 | 1017.3 |
| 20260506091514 | 31 | 338 | 0.0 | 0.0 | 0.01 | 0.48 | 0.01 | 95 | 1017.3 |
| 20260506091005 | 31 | 327 | 0.0 | 0.0 | 0.01 | 0.48 | 0.01 | 95 | 1017.1 |
| 20260506090507 | 31 | 327 | 0.0 | 0.0 | 0.01 | 0.48 | 0.01 | 95 | 1017.3 |
| 20260506090026 | 31 | 329 | 0.0 | 0.0 | 0.01 | 0.48 | 0.01 | 95 | 1017.3 |
| 20260506085507 | 31 | 321 | 0.0 | 0.0 | 0.01 | 0.48 | 0.01 | 95 | 1017.3 |
| 20260506085007 | 31 | 315 | 0.0 | 0.0 | 0.01 | 0.48 | 0.01 | 95 | 1017.3 |
| 20260506084505 | 31 | 313 | 0.0 | 0.0 | 0.01 | 0.48 | 0.01 | 95 | 1017.4 |
| 20260506084004 | 31 | 318 | 0.0 | 0.0 | 0.01 | 0.48 | 0.01 | 95 | 1017.4 |
| 20260506083508 | 31 | 310 | 0.0 | 2.0 | 0.01 | 0.48 | 0.01 | 95 | 1017.3 |
| 20260506083017 | 31 | 315 | 0.0 | 2.0 | 0.01 | 0.48 | 0.01 | 95 | 1017.3 |
| 20260506082508 | 31 | 333 | 0.0 | 2.0 | 0.01 | 0.48 | 0.01 | 95 | 1017.4 |
| 20260506082011 | 32 | 320 | 0.0 | 2.0 | 0.00 | 0.47 | 0.00 | 95 | 1017.3 |
| 20260506081533 | 32 | 321 | 0.0 | 2.0 | 0.00 | 0.47 | 0.00 | 95 | 1017.3 |
| 20260506081007 | 32 | 310 | 0.0 | 2.0 | 0.00 | 0.47 | 0.00 | 95 | 1017.3 |
| 20260506080503 | 32 | 322 | 0.0 | 2.0 | 0.00 | 0.47 | 0.00 | 95 | 1017.3 |
| 20260506073511 | 32 | 321 | 1.0 | 2.0 | 0.00 | 0.48 | 0.00 | 95 | 1017.8 |
| 20260506073038 | 32 | 323 | 0.0 | 2.0 | 0.00 | 0.48 | 0.00 | 95 | 1017.5 |
| 20260506072504 | 32 | 360 | 1.0 | 2.0 | 0.00 | 0.48 | 0.00 | 95 | 1017.3 |
| 20260506072006 | 32 | 350 | 1.0 | 2.0 | 0.00 | 0.48 | 0.00 | 95 | 1017.3 |
| 20260506071514 | 32 | 344 | 1.0 | 2.0 | 0.00 | 0.48 | 0.00 | 95 | 1017.3 |
| 20260506071013 | 32 | 352 | 1.0 | 3.0 | 0.00 | 0.48 | 0.00 | 95 | 1017.3 |
| 20260506070508 | 32 | 326 | 0.0 | 3.0 | 0.00 | 0.48 | 0.00 | 95 | 1017.4 |
| 20260506062507 | 32 | 334 | 0.0 | 0.0 | 0.00 | 0.48 | 0.00 | 95 | 1017.1 |
| 20260506062009 | 32 | 334 | 0.0 | 0.0 | 0.00 | 0.48 | 0.00 | 95 | 1016.8 |
| 20260506061524 | 32 | 334 | 0.0 | 0.0 | 0.00 | 0.48 | 0.00 | 95 | 1016.8 |
| 20260506061010 | 32 | 333 | 0.0 | 0.0 | 0.00 | 0.48 | 0.00 | 95 | 1016.8 |
| 20260506060511 | 32 | 335 | 0.0 | 0.0 | 0.00 | 0.48 | 0.00 | 95 | 1016.8 |
| 20260506051007 | 32 | 271 | 0.0 | 0.0 | 0.01 | 0.48 | 0.48 | 95 | 1016.6 |
| 20260506050506 | 32 | 271 | 0.0 | 0.0 | 0.01 | 0.48 | 0.48 | 95 | 1016.6 |
| 20260506045012 | 32 | 271 | 0.0 | 0.0 | 0.01 | 0.48 | 0.48 | 95 | 1016.3 |
| 20260506044557 | 32 | 265 | 0.0 | 0.0 | 0.01 | 0.48 | 0.48 | 95 | 1016.2 |
| 20260506044006 | 32 | 265 | 0.0 | 0.0 | 0.01 | 0.48 | 0.48 | 95 | 1016.1 |
| 20260506043506 | 32 | 265 | 0.0 | 0.0 | 0.01 | 0.48 | 0.48 | 95 | 1016.3 |
| 20260506043021 | 32 | 265 | 0.0 | 0.0 | 0.01 | 0.48 | 0.48 | 95 | 1016.4 |
| 20260506042509 | 32 | 265 | 0.0 | 0.0 | 0.00 | 0.47 | 0.47 | 95 | 1016.5 |
| 20260506042016 | 32 | 265 | 0.0 | 0.0 | 0.00 | 0.47 | 0.47 | 95 | 1016.4 |
| 20260506041524 | 32 | 265 | 0.0 | 0.0 | 0.00 | 0.47 | 0.47 | 95 | 1016.4 |
| 20260506041012 | 32 | 303 | 0.0 | 0.0 | 0.00 | 0.47 | 0.47 | 95 | 1016.6 |
| 20260506040511 | 32 | 343 | 0.0 | 0.0 | 0.00 | 0.47 | 0.47 | 95 | 1016.4 |
| 20260506040010 | 32 | 344 | 0.0 | 1.0 | 0.00 | 0.47 | 0.47 | 95 | 1016.3 |
| 20260506035505 | 32 | 360 | 0.0 | 1.0 | 0.00 | 0.47 | 0.47 | 95 | 1016.1 |
| 20260506035006 | 32 | 338 | 0.0 | 0.0 | 0.00 | 0.47 | 0.47 | 95 | 1016.1 |
| 20260506034542 | 32 | 338 | 0.0 | 0.0 | 0.00 | 0.47 | 0.47 | 95 | 1016.3 |
| 20260506034008 | 32 | 338 | 0.0 | 0.0 | 0.00 | 0.47 | 0.47 | 95 | 1016.3 |
| 20260506033512 | 32 | 338 | 0.0 | 0.0 | 0.00 | 0.48 | 0.47 | 95 | 1016.3 |
| 20260506033032 | 32 | 338 | 0.0 | 0.0 | 0.00 | 0.48 | 0.47 | 95 | 1016.2 |
| 20260506032509 | 32 | 338 | 0.0 | 1.0 | 0.00 | 0.48 | 0.47 | 95 | 1016.2 |
| 20260506032007 | 32 | 338 | 0.0 | 2.0 | 0.00 | 0.48 | 0.47 | 95 | 1016.3 |
| 20260506031516 | 32 | 337 | 0.0 | 3.0 | 0.00 | 0.48 | 0.47 | 95 | 1016.1 |
| 20260506031007 | 32 | 342 | 1.0 | 3.0 | 0.00 | 0.49 | 0.47 | 95 | 1015.9 |
| 20260506030509 | 32 | 341 | 1.0 | 2.0 | 0.00 | 0.50 | 0.47 | 94 | 1015.8 |
| 20260506030026 | 32 | 345 | 0.0 | 2.0 | 0.00 | 0.51 | 0.47 | 94 | 1015.7 |
| 20260506025507 | 32 | 17 | 0.0 | 2.0 | 0.00 | 0.52 | 0.47 | 94 | 1015.6 |
| 20260506025011 | 32 | 337 | 1.0 | 2.0 | 0.00 | 0.56 | 0.47 | 94 | 1015.6 |
| 20260506024529 | 32 | 330 | 0.0 | 2.0 | 0.00 | 0.58 | 0.47 | 94 | 1015.5 |
| 20260506024009 | 32 | 322 | 0.0 | 2.0 | 0.00 | 0.61 | 0.47 | 94 | 1015.3 |
| 20260506023509 | 32 | 317 | 0.0 | 0.0 | 0.00 | 0.63 | 0.47 | 94 | 1015.3 |
| 20260506023020 | 32 | 317 | 0.0 | 0.0 | 0.00 | 0.65 | 0.47 | 94 | 1015.1 |
| 20260506022509 | 32 | 317 | 0.0 | 0.0 | 0.00 | 0.67 | 0.47 | 94 | 1015.0 |
| 20260506022011 | 32 | 317 | 0.0 | 1.0 | 0.00 | 0.68 | 0.47 | 94 | 1014.9 |
| 20260506021530 | 32 | 317 | 0.0 | 1.0 | 0.00 | 0.68 | 0.47 | 94 | 1014.8 |
| 20260506021010 | 32 | 327 | 0.0 | 1.0 | 0.00 | 0.68 | 0.47 | 94 | 1014.8 |
| 20260506020510 | 32 | 329 | 0.0 | 1.0 | 0.00 | 0.68 | 0.47 | 94 | 1014.9 |
| 20260506020028 | 33 | 342 | 0.0 | 1.0 | 0.00 | 0.68 | 0.47 | 94 | 1014.5 |
| 20260506015508 | 33 | 338 | 0.0 | 2.0 | 0.00 | 0.69 | 0.47 | 94 | 1014.5 |
| 20260506015011 | 33 | 346 | 0.0 | 2.0 | 0.00 | 0.69 | 0.47 | 94 | 1014.5 |
| 20260506014528 | 33 | 326 | 0.0 | 2.0 | 0.00 | 0.69 | 0.47 | 94 | 1014.6 |
| 20260506014008 | 33 | 335 | 0.0 | 2.0 | 0.00 | 0.69 | 0.47 | 94 | 1014.5 |
| 20260506013509 | 33 | 334 | 0.0 | 3.0 | 0.00 | 0.69 | 0.47 | 94 | 1014.6 |
| 20260506013029 | 33 | 336 | 0.0 | 3.0 | 0.00 | 0.69 | 0.47 | 94 | 1014.3 |
| 20260506012507 | 33 | 336 | 1.0 | 2.0 | 0.00 | 0.69 | 0.47 | 94 | 1014.1 |
| 20260506012013 | 33 | 350 | 0.0 | 2.0 | 0.00 | 0.69 | 0.47 | 94 | 1014.2 |
| 20260506011520 | 33 | 352 | 0.0 | 3.0 | 0.00 | 0.69 | 0.47 | 94 | 1014.4 |
| 20260506011009 | 33 | 352 | 0.0 | 3.0 | 0.00 | 0.69 | 0.47 | 94 | 1014.2 |
| 20260506010507 | 33 | 329 | 0.0 | 2.0 | 0.00 | 0.69 | 0.47 | 94 | 1014.1 |
| 20260506010027 | 33 | 340 | 0.0 | 2.0 | 0.00 | 0.69 | 0.47 | 94 | 1014.1 |